Darien, Illinois
Current Conditions -  °F | °C
As of 3:15 AM on Sunday 21 Dec 2014 (Local Time) from KLOT Reporting Station
Overcast Overcast  
Wind Chill: 26°   Ceiling: 3400
Heat Index: 32°   Visibility: 7mi
Dew Point: 28°   Wind: 7mph
Humidity: 87%   Direction: 180°S
Pressure: 30.23"   Gusts: NA
Location:  41.75°N, 87.98°W
Report Text: KLOT 210915Z AUTO 18006KT 7SM OVC034 00/M02 A3023 RMK AO2 T00001020
Loading
Personal Weather Stations






























Interactive Weather Map New forecast layout! Learn more

10-Day Weather Forecast

Advertisements
Track Severe Weather on mobile